Nearby METAR Reports

 

KL35 - Big Bear City, California, USA
Distance from station: WNW 2mi, 4km
Updated: 10/18/2018 2:15am
Clear
Clear
 Wind from calm
Wind: Calm
Temperature: 28°F , -2°C
Dew Point: 23°F , -5°C
Humidity: 80%
Barometer: 30.25 inHg , 1024.4 hPa
Clouds: Clear
Visibility: 10 miles , 16 km
2018/10/18 09:15 KL35 180915Z AUTO 00000KT 10SM CLR M02/M05 A3025 RMK AO2
KSBD - San Bernardino, California, USA
Distance from station: WSW 28mi, 45km
Updated: 10/18/2018 2:20am
Clear
Clear
 Wind from ENE
Wind: ENE 3 mph , 6 km/h
Temperature: 57°F , 14°C
Dew Point: 34°F , 1°C
Humidity: 41%
Barometer: 30.08 inHg , 1018.6 hPa
Clouds: Clear
Visibility: 10 miles , 16 km
2018/10/18 09:20 KSBD 180920Z AUTO 07003KT 10SM CLR 14/01 A3008 RMK AO2 T01410006
 
KVCV - Victorville, California, USA
Distance from station: NW 40mi, 64km
Updated: 10/16/2018 4:50pm
NOT Current
Clear
Clear
 Wind from ENE
Wind: ENE 7 mph , 11 km/h
Barometer: 30.09 inHg , 1019 hPa
Clouds: Clear
Visibility: 10 miles , 16 km
2018/10/16 23:50 KVCV 162350Z 06006KT 10SM SKC A3009
KNXP - Twentynine Palms, California, USA
Distance from station: E 37mi, 59km
Updated: 10/18/2018 1:56am
Clear
Clear
 Wind from W
Wind: W 6 mph , 9 km/h
Temperature: 55°F , 13°C
Dew Point: 39°F , 4°C
Humidity: 55%
Barometer: 30.19 inHg , 1022.4 hPa
Clouds: Clear
Visibility: 10 miles , 16 km
2018/10/18 08:56 KNXP 180856Z AUTO 28005KT 10SM CLR 13/04 A3019 RMK AO2 SLP200 T01280044 55001
 
KPSP - Palm Springs, California, USA
Distance from station: SSE 35mi, 57km
Updated: 10/18/2018 1:53am
Clear
Clear
 Wind from NNW
Wind: NNW 6 mph , 9 km/h
Temperature: 66°F , 19°C
Dew Point: 39°F , 4°C
Humidity: 37%
Barometer: 30.07 inHg , 1018.3 hPa
Clouds: Clear
Visibility: 10 miles , 16 km
2018/10/18 08:53 KPSP 180853Z AUTO 33005KT 10SM CLR 19/04 A3007 RMK AO2 SLP181 T01940044 56005
KONT - Ontario, California, USA
Distance from station: WSW 46mi, 74km
Updated: 10/18/2018 1:53am
Clear
Clear
 Wind from NNE
Wind: NNE 5 mph , 7 km/h
Temperature: 61°F , 16°C
Dew Point: 37°F , 3°C
Humidity: 42%
Barometer: 30.06 inHg , 1017.9 hPa
Clouds: Clear
Visibility: 10 miles , 16 km
2018/10/18 08:53 KONT 180853Z 02004KT 10SM CLR 16/03 A3006 RMK AO2 SLP168 T01610033 56003
 
KRIV - Riverside/March, California, USA
Distance from station: SW 37mi, 60km
Updated: 10/18/2018 1:58am
Clear
Clear
 Wind from calm
Wind: Calm
Temperature: 50°F , 10°C
Dew Point: 41°F , 5°C
Humidity: 71%
Barometer: 30.07 inHg , 1018.3 hPa
Clouds: Clear
Visibility: 10 miles , 16 km
2018/10/18 08:58 KRIV 180858Z AUTO 00000KT 10SM CLR 10/05 A3007 RMK AO2 SLP175 T01000046 57004 PNO $
KRAL - Riverside, California, USA
Distance from station: WSW 42mi, 68km
Updated: 10/18/2018 1:53am
Clear
Clear
 Wind from ESE
Wind: ESE 3 mph , 6 km/h
Temperature: 57°F , 14°C
Dew Point: 43°F , 6°C
Humidity: 59%
Barometer: 30.07 inHg , 1018.3 hPa
Clouds: Clear
Visibility: 10 miles , 16 km
2018/10/18 08:53 KRAL 180853Z AUTO 11003KT 10SM CLR 14/06 A3007 RMK AO2 SLP166 T01440056 58003
 
KDAG - Daggett, California, USA
Distance from station: N 41mi, 66km
Updated: 10/18/2018 1:50am
Clear
Clear
 Wind from calm
Wind: Calm
Temperature: 50°F , 10°C
Dew Point: 32°F , 0°C
Humidity: 50%
Barometer: 30.13 inHg , 1020.3 hPa
Clouds: Clear
Visibility: 10 miles , 16 km
2018/10/18 08:50 KDAG 180850Z AUTO 00000KT 10SM CLR 10/00 A3013 RMK AO2 SLP192 T01000000 55001
KCNO - Chino, California, USA
Distance from station: WSW 50mi, 80km
Updated: 10/18/2018 1:53am
Clear
Clear
 Wind from calm
Wind: Calm
Temperature: 61°F , 16°C
Dew Point: 43°F , 6°C
Humidity: 52%
Barometer: 30.07 inHg , 1018.3 hPa
Clouds: Clear
Visibility: 7 miles , 11 km
2018/10/18 08:53 KCNO 180853Z AUTO 00000KT 7SM CLR 16/06 A3007 RMK AO2 SLP177 T01560056 58002